Time;durP1;ratioP1;P1;durP2;ratioP2;P2;SDS_P1;SDS_P2;PMS_P1;PMS_P2;Temp;Humidity;BMP_temperature;BMP_pressure;BME280_temperature;BME280_humidity;BME280_pressure;Samples;Min_cycle;Max_cycle;Signal;HPM_P1;HPM_P2
2024/04/18 00:00:09;;;;;;;21.33;16.00;;;2.80;99.90;;;;;;5419833;26;20077;-56
2024/04/18 00:02:35;;;;;;;25.97;18.30;;;2.80;99.90;;;;;;5420353;26;19999;-56
2024/04/18 00:05:01;;;;;;;22.97;16.50;;;2.80;99.90;;;;;;5420364;26;20351;-57
2024/04/18 00:07:26;;;;;;;23.20;17.53;;;2.90;99.90;;;;;;5418101;26;20330;-56
2024/04/18 00:09:52;;;;;;;22.67;16.47;;;2.90;99.90;;;;;;5419801;26;19999;-57
2024/04/18 00:12:18;;;;;;;21.73;16.73;;;2.90;99.90;;;;;;5419769;26;20050;-56
2024/04/18 00:14:44;;;;;;;21.83;16.03;;;2.90;99.90;;;;;;5419755;26;20003;-56
2024/04/18 00:17:09;;;;;;;21.27;15.50;;;3.00;99.90;;;;;;5420298;26;19999;-57
2024/04/18 00:19:35;;;;;;;19.73;14.77;;;2.90;99.90;;;;;;5419545;26;20193;-56
2024/04/18 00:22:03;;;;;;;18.57;13.70;;;2.90;99.90;;;;;;5419623;26;20064;-56
2024/04/18 00:24:29;;;;;;;21.13;14.60;;;2.90;99.90;;;;;;5419592;26;20006;-57
2024/04/18 00:26:55;;;;;;;20.87;14.53;;;2.80;99.90;;;;;;5419599;26;19999;-56
2024/04/18 00:29:20;;;;;;;19.53;14.67;;;2.80;99.90;;;;;;5418859;26;20004;-56
2024/04/18 00:31:46;;;;;;;19.80;14.93;;;2.90;99.90;;;;;;5419721;26;20006;-56
2024/04/18 00:34:12;;;;;;;20.80;15.07;;;2.80;99.90;;;;;;5419486;26;20007;-56
2024/04/18 00:36:38;;;;;;;25.63;18.93;;;2.60;99.90;;;;;;5419665;26;20011;-56
2024/04/18 00:39:04;;;;;;;23.23;17.60;;;2.50;99.90;;;;;;5418712;26;20426;-56
2024/04/18 00:41:30;;;;;;;24.37;17.57;;;2.40;99.90;;;;;;5419028;26;19999;-56
2024/04/18 00:43:55;;;;;;;23.40;17.57;;;2.40;99.90;;;;;;5419341;26;19996;-56
2024/04/18 00:46:26;;;;;;;21.77;16.47;;;2.40;99.90;;;;;;5419028;26;19999;-56
2024/04/18 00:48:52;;;;;;;23.77;16.80;;;2.40;99.90;;;;;;5419521;26;20003;-56
2024/04/18 00:51:18;;;;;;;19.77;15.60;;;2.30;99.90;;;;;;5419283;26;20019;-56
2024/04/18 00:53:44;;;;;;;18.97;14.93;;;2.30;99.90;;;;;;5419163;26;20315;-56
2024/04/18 00:56:11;;;;;;;19.80;15.07;;;2.20;99.90;;;;;;5418850;26;20011;-56
2024/04/18 00:58:37;;;;;;;19.40;14.23;;;2.20;99.90;;;;;;5418745;26;20362;-56
2024/04/18 01:01:03;;;;;;;16.70;13.30;;;2.10;99.90;;;;;;5418720;26;20006;-56
2024/04/18 01:03:29;;;;;;;18.00;14.33;;;2.00;99.90;;;;;;5418797;26;20006;-56
2024/04/18 01:05:56;;;;;;;18.20;14.17;;;2.20;99.90;;;;;;5418744;26;20000;-56
2024/04/18 01:08:22;;;;;;;17.37;14.13;;;2.30;99.90;;;;;;5418897;26;20014;-56
2024/04/18 01:10:47;;;;;;;20.17;15.10;;;2.40;99.90;;;;;;5418697;26;20335;-56
2024/04/18 01:13:13;;;;;;;20.83;15.33;;;2.30;99.90;;;;;;5418677;26;20010;-56
2024/04/18 01:15:39;;;;;;;22.37;16.53;;;2.40;99.90;;;;;;5418467;26;19995;-56
2024/04/18 01:18:05;;;;;;;20.37;15.60;;;2.50;99.90;;;;;;5418458;26;20011;-57
2024/04/18 01:20:31;;;;;;;21.53;16.43;;;2.50;99.90;;;;;;5418830;26;19999;-57
2024/04/18 01:22:56;;;;;;;18.97;14.50;;;2.50;99.90;;;;;;5418541;26;19996;-56
2024/04/18 01:25:22;;;;;;;18.40;13.87;;;2.50;99.90;;;;;;5418402;26;20007;-56
2024/04/18 01:27:48;;;;;;;17.17;13.67;;;2.60;99.90;;;;;;5418464;26;20009;-56
2024/04/18 01:30:13;;;;;;;16.60;13.47;;;2.50;99.90;;;;;;5418438;26;20011;-56
2024/04/18 01:32:39;;;;;;;18.00;13.70;;;2.40;99.90;;;;;;5418548;26;20054;-56
2024/04/18 01:35:06;;;;;;;20.37;15.40;;;2.40;99.90;;;;;;5418204;26;20524;-56
2024/04/18 01:37:32;;;;;;;21.57;16.40;;;2.60;99.90;;;;;;5418518;26;19996;-57
2024/04/18 01:39:58;;;;;;;22.97;16.67;;;2.60;99.90;;;;;;5417587;26;20000;-56
2024/04/18 01:42:24;;;;;;;22.33;16.73;;;2.70;99.90;;;;;;5418393;26;19999;-56
2024/04/18 01:44:51;;;;;;;23.43;16.90;;;2.70;99.90;;;;;;5418373;26;20423;-56
2024/04/18 01:47:17;;;;;;;24.97;17.90;;;2.70;99.90;;;;;;5418386;26;20016;-57
2024/04/18 01:49:43;;;;;;;22.30;16.60;;;2.60;99.90;;;;;;5418658;26;20011;-56
2024/04/18 01:52:08;;;;;;;24.17;17.03;;;2.60;99.90;;;;;;5418377;26;20009;-56
2024/04/18 01:54:34;;;;;;;19.80;15.73;;;2.70;99.90;;;;;;5418265;26;19995;-56
2024/04/18 01:57:00;;;;;;;20.33;15.20;;;2.70;99.90;;;;;;5418410;26;20321;-56
2024/04/18 01:59:26;;;;;;;21.10;15.63;;;2.70;99.90;;;;;;5418305;26;20004;-56
2024/04/18 02:01:54;;;;;;;18.03;14.37;;;2.80;99.90;;;;;;5418005;26;20064;-56
2024/04/18 02:04:20;;;;;;;19.27;14.60;;;2.90;99.90;;;;;;5418322;26;20007;-56
2024/04/18 02:06:52;;;;;;;19.87;14.90;;;2.90;99.90;;;;;;5417951;26;20072;-56
2024/04/18 02:09:18;;;;;;;19.47;14.70;;;2.90;99.90;;;;;;5417817;26;20335;-56
2024/04/18 02:11:44;;;;;;;20.60;15.43;;;2.90;99.90;;;;;;5416179;26;20314;-56
2024/04/18 02:14:12;;;;;;;20.87;15.40;;;2.80;99.90;;;;;;5418017;26;20434;-56
2024/04/18 02:16:38;;;;;;;18.47;13.83;;;2.70;99.90;;;;;;5417790;26;20035;-56
2024/04/18 02:19:04;;;;;;;18.47;14.33;;;2.90;99.90;;;;;;5417721;26;19996;-56
2024/04/18 02:21:29;;;;;;;23.10;14.83;;;3.10;99.90;;;;;;5417705;26;20345;-56
2024/04/18 02:23:55;;;;;;;19.70;14.10;;;3.10;99.90;;;;;;5417706;26;20006;-56
2024/04/18 02:26:21;;;;;;;20.73;15.23;;;3.10;99.90;;;;;;5417938;26;20069;-57
2024/04/18 02:28:47;;;;;;;18.97;14.33;;;3.20;99.90;;;;;;5417654;26;20028;-56
2024/04/18 02:31:12;;;;;;;17.87;13.00;;;3.20;99.90;;;;;;5417562;26;20006;-57
2024/04/18 02:33:38;;;;;;;18.37;14.30;;;3.10;99.90;;;;;;5415670;26;20003;-57
2024/04/18 02:36:04;;;;;;;23.47;15.47;;;3.10;99.90;;;;;;5417526;26;19999;-57
2024/04/18 02:38:31;;;;;;;19.40;14.73;;;3.20;99.90;;;;;;5417149;26;19996;-57
2024/04/18 02:41:06;;;;;;;19.93;14.40;;;3.20;99.90;;;;;;5417096;26;19999;-57
2024/04/18 02:43:32;;;;;;;22.10;15.83;;;3.10;99.90;;;;;;5417297;26;19996;-57
2024/04/18 02:45:57;;;;;;;17.23;13.37;;;3.10;99.90;;;;;;5417348;26;20419;-56
2024/04/18 02:48:23;;;;;;;19.23;14.13;;;3.00;99.90;;;;;;5416969;26;20428;-56
2024/04/18 02:50:49;;;;;;;19.33;14.37;;;2.90;99.90;;;;;;5417371;26;20011;-57
2024/04/18 02:53:14;;;;;;;21.57;15.87;;;2.70;99.90;;;;;;5420689;26;20011;-57
2024/04/18 02:55:40;;;;;;;18.10;13.70;;;2.70;99.90;;;;;;5420658;26;20000;-56
2024/04/18 02:58:06;;;;;;;19.07;14.70;;;2.80;99.90;;;;;;5420935;26;20030;-57
2024/04/18 03:00:35;;;;;;;19.50;14.90;;;2.70;99.90;;;;;;5420775;26;20422;-57
2024/04/18 03:03:01;;;;;;;18.60;14.10;;;2.70;99.90;;;;;;5420809;26;19995;-57
2024/04/18 03:05:28;;;;;;;19.93;14.90;;;2.60;99.90;;;;;;5420655;26;20014;-58
2024/04/18 03:07:55;;;;;;;21.33;15.43;;;2.60;99.90;;;;;;5420341;26;19999;-56
2024/04/18 03:10:21;;;;;;;20.80;14.77;;;2.50;99.90;;;;;;5420727;26;20015;-57
2024/04/18 03:12:47;;;;;;;21.40;15.43;;;2.50;99.90;;;;;;5420601;26;20422;-56
2024/04/18 03:15:13;;;;;;;22.17;16.13;;;2.50;99.90;;;;;;5420296;26;20446;-56
2024/04/18 03:17:38;;;;;;;23.63;16.60;;;2.50;99.90;;;;;;5420415;26;19999;-56
2024/04/18 03:20:05;;;;;;;22.27;16.20;;;2.50;99.90;;;;;;5418746;26;20059;-56
2024/04/18 03:22:31;;;;;;;24.90;17.47;;;2.60;99.90;;;;;;5420493;26;19996;-56
2024/04/18 03:24:58;;;;;;;21.17;16.13;;;2.60;99.90;;;;;;5420428;26;20036;-56
2024/04/18 03:27:24;;;;;;;23.10;16.70;;;2.80;99.90;;;;;;5420400;26;20323;-56
2024/04/18 03:29:49;;;;;;;22.73;17.03;;;2.80;99.90;;;;;;5420093;26;20000;-56
2024/04/18 03:32:15;;;;;;;21.87;15.53;;;2.70;99.90;;;;;;5418524;26;19995;-56
2024/04/18 03:34:41;;;;;;;19.83;15.57;;;2.60;99.90;;;;;;5420301;26;20006;-56
2024/04/18 03:37:07;;;;;;;24.90;14.80;;;2.50;99.90;;;;;;5420031;26;20004;-56
2024/04/18 03:39:34;;;;;;;18.63;14.10;;;2.60;99.90;;;;;;5420262;26;20008;-56
2024/04/18 03:42:00;;;;;;;20.03;15.67;;;2.60;99.90;;;;;;5420220;26;19995;-56
2024/04/18 03:44:25;;;;;;;23.60;17.23;;;2.60;99.90;;;;;;5420068;26;20067;-56
2024/04/18 03:46:51;;;;;;;21.03;16.17;;;2.60;99.90;;;;;;5419814;26;20007;-56
2024/04/18 03:49:17;;;;;;;19.40;14.70;;;2.60;99.90;;;;;;5419736;26;20069;-56
2024/04/18 03:51:42;;;;;;;23.00;15.73;;;2.60;99.90;;;;;;5419796;26;20006;-56
2024/04/18 03:54:08;;;;;;;20.20;14.67;;;2.50;99.90;;;;;;5419721;26;19995;-57
2024/04/18 03:56:35;;;;;;;22.50;15.80;;;2.60;99.90;;;;;;5419737;26;20011;-56
2024/04/18 03:59:01;;;;;;;18.97;14.87;;;2.60;99.90;;;;;;5419985;26;19996;-56
2024/04/18 04:01:28;;;;;;;19.73;14.73;;;2.70;99.90;;;;;;5419645;26;20077;-56
2024/04/18 04:03:54;;;;;;;20.30;15.33;;;2.90;99.90;;;;;;5419806;26;19995;-56
2024/04/18 04:06:21;;;;;;;24.97;18.17;;;2.90;99.90;;;;;;5419909;26;20068;-56
2024/04/18 04:08:47;;;;;;;29.27;19.10;;;2.90;99.90;;;;;;5419533;26;20010;-57
2024/04/18 04:11:13;;;;;;;23.93;18.47;;;2.80;99.90;;;;;;5419475;26;19999;-57
2024/04/18 04:13:39;;;;;;;28.27;19.80;;;2.90;99.90;;;;;;5419388;26;19999;-57
2024/04/18 04:16:05;;;;;;;26.03;18.80;;;2.90;99.90;;;;;;5419680;26;20084;-56
2024/04/18 04:18:31;;;;;;;28.47;20.87;;;2.90;99.90;;;;;;5419781;26;20435;-56
2024/04/18 04:20:57;;;;;;;25.53;19.80;;;2.90;99.90;;;;;;5419732;26;19995;-57
2024/04/18 04:23:23;;;;;;;25.37;18.27;;;2.80;99.90;;;;;;5419691;26;20007;-57
2024/04/18 04:25:48;;;;;;;27.77;19.77;;;2.80;99.90;;;;;;5418815;26;20004;-56
2024/04/18 04:28:14;;;;;;;28.23;20.93;;;2.90;99.90;;;;;;5419465;26;19995;-56
2024/04/18 04:30:40;;;;;;;27.30;18.20;;;2.80;99.90;;;;;;5419456;26;19996;-56
2024/04/18 04:33:05;;;;;;;22.03;16.53;;;2.70;99.90;;;;;;5419117;26;20434;-57
2024/04/18 04:35:31;;;;;;;23.83;17.00;;;2.90;99.90;;;;;;5419430;26;19995;-56
2024/04/18 04:37:58;;;;;;;24.43;17.20;;;2.90;99.90;;;;;;5419413;26;20000;-56
2024/04/18 04:40:24;;;;;;;25.33;18.87;;;2.90;99.90;;;;;;5419519;26;20032;-57
2024/04/18 04:42:50;;;;;;;21.27;16.50;;;3.00;99.90;;;;;;5419346;26;20090;-56
2024/04/18 04:45:15;;;;;;;25.07;17.73;;;3.20;99.90;;;;;;5419148;26;20434;-56
2024/04/18 04:47:41;;;;;;;22.27;16.53;;;3.20;99.90;;;;;;5419006;26;20007;-56
2024/04/18 04:50:07;;;;;;;19.93;14.53;;;3.30;99.90;;;;;;5419255;26;19995;-57
2024/04/18 04:52:33;;;;;;;20.60;15.17;;;3.30;99.90;;;;;;5419211;26;20010;-56
2024/04/18 04:54:58;;;;;;;21.97;15.87;;;3.50;99.90;;;;;;5418723;26;20064;-57
2024/04/18 04:57:24;;;;;;;21.97;15.17;;;3.60;99.90;;;;;;5418730;26;19999;-56
2024/04/18 04:59:50;;;;;;;22.53;15.87;;;3.70;99.90;;;;;;5419076;26;20003;-57
2024/04/18 05:02:16;;;;;;;20.23;14.73;;;3.90;99.90;;;;;;5418693;26;20511;-56
2024/04/18 05:04:42;;;;;;;22.10;15.90;;;3.80;99.90;;;;;;5418857;26;20015;-57
2024/04/18 05:07:07;;;;;;;21.37;15.43;;;3.90;99.90;;;;;;5418779;26;20067;-57
2024/04/18 05:09:33;;;;;;;18.43;12.83;;;3.90;99.90;;;;;;5418572;26;19991;-57
2024/04/18 05:11:59;;;;;;;17.57;12.47;;;4.00;99.90;;;;;;5418589;26;20453;-57
2024/04/18 05:14:26;;;;;;;15.30;11.33;;;4.10;99.90;;;;;;5417987;26;20010;-56
2024/04/18 05:16:52;;;;;;;16.27;12.23;;;4.20;99.90;;;;;;5418844;26;20003;-56
2024/04/18 05:19:21;;;;;;;14.70;11.50;;;4.20;99.90;;;;;;5418329;26;20334;-57
2024/04/18 05:21:47;;;;;;;13.97;10.60;;;4.20;99.90;;;;;;5418907;26;20070;-56
2024/04/18 05:24:13;;;;;;;14.80;10.87;;;4.30;99.90;;;;;;5418764;26;19995;-56
2024/04/18 05:26:39;;;;;;;15.70;11.17;;;4.40;99.90;;;;;;5418415;26;20007;-57
2024/04/18 05:31:49;;;;;;;17.57;12.40;;;4.40;99.90;;;;;;5419061;26;20010;-57
2024/04/18 05:34:15;;;;;;;18.37;13.47;;;4.40;99.90;;;;;;5418661;26;19996;-57
2024/04/18 05:36:40;;;;;;;18.80;12.60;;;4.50;99.90;;;;;;5418218;26;19996;-57
2024/04/18 05:39:06;;;;;;;16.33;11.30;;;4.40;99.90;;;;;;5418240;26;20003;-57
2024/04/18 05:41:34;;;;;;;15.47;11.87;;;4.40;99.90;;;;;;5418420;26;19999;-57
2024/04/18 05:43:59;;;;;;;18.37;13.33;;;4.40;99.90;;;;;;5418471;26;20031;-58
2024/04/18 05:46:25;;;;;;;15.00;11.33;;;4.60;99.90;;;;;;5418340;26;19999;-57
2024/04/18 05:48:51;;;;;;;18.80;12.87;;;4.80;99.90;;;;;;5418064;26;20000;-56
2024/04/18 05:51:17;;;;;;;17.40;12.97;;;5.10;99.90;;;;;;5418241;26;20006;-57
2024/04/18 05:53:43;;;;;;;16.47;11.73;;;5.30;99.90;;;;;;5418034;26;20077;-57
2024/04/18 05:56:09;;;;;;;14.13;10.50;;;5.70;99.90;;;;;;5418231;26;20007;-60
2024/04/18 05:58:36;;;;;;;14.20;9.80;;;6.40;99.90;;;;;;5417778;26;19999;-60
2024/04/18 06:01:04;;;;;;;10.93;8.43;;;8.30;99.90;;;;;;5417813;26;19995;-60
2024/04/18 06:03:30;;;;;;;10.93;7.70;;;11.10;96.20;;;;;;5417759;26;19995;-59
2024/04/18 06:05:59;;;;;;;8.80;6.40;;;14.00;83.30;;;;;;5417673;26;20014;-58
2024/04/18 06:08:25;;;;;;;10.03;6.73;;;17.50;70.30;;;;;;5417756;26;20004;-59
2024/04/18 06:10:51;;;;;;;9.77;6.68;;;21.40;59.00;;;;;;5418120;26;20002;-59
2024/04/18 06:13:18;;;;;;;11.98;7.97;;;24.70;51.90;;;;;;5417543;26;20434;-59
2024/04/18 06:15:44;;;;;;;9.57;6.78;;;27.00;47.40;;;;;;5417568;26;20442;-58
2024/04/18 06:18:13;;;;;;;7.85;5.97;;;28.40;43.10;;;;;;5417723;26;20031;-58
2024/04/18 06:20:41;;;;;;;8.20;5.97;;;28.40;40.00;;;;;;5417715;26;19999;-59
2024/04/18 06:23:07;;;;;;;7.13;5.93;;;28.60;39.20;;;;;;5417352;26;20457;-59
2024/04/18 06:25:35;;;;;;;6.40;5.57;;;26.90;41.30;;;;;;5417764;26;20450;-58
2024/04/18 06:28:02;;;;;;;8.55;6.22;;;25.40;41.60;;;;;;5420972;26;20006;-60
2024/04/18 06:30:28;;;;;;;9.00;7.45;;;25.70;41.80;;;;;;5421262;26;20007;-59
2024/04/18 06:32:54;;;;;;;10.90;9.02;;;25.90;41.40;;;;;;5421156;26;20010;-55
2024/04/18 06:35:20;;;;;;;8.85;6.13;;;25.20;40.00;;;;;;5420883;26;19995;-56
2024/04/18 06:37:47;;;;;;;7.72;5.85;;;22.80;42.60;;;;;;5421133;26;20449;-56
2024/04/18 06:40:13;;;;;;;11.18;8.98;;;20.50;45.10;;;;;;5420942;26;19995;-57
2024/04/18 06:42:40;;;;;;;9.45;6.60;;;18.90;47.60;;;;;;5421161;26;20000;-56
2024/04/18 06:45:05;;;;;;;9.75;6.75;;;16.90;50.90;;;;;;5420754;26;19999;-55
2024/04/18 06:47:31;;;;;;;9.45;7.70;;;15.40;54.00;;;;;;5420702;26;20006;-55
2024/04/18 06:49:57;;;;;;;29.67;22.20;;;14.40;56.00;;;;;;5420657;26;20007;-56
2024/04/18 06:52:23;;;;;;;21.10;14.90;;;13.50;58.40;;;;;;5420548;26;20007;-55
2024/04/18 06:54:48;;;;;;;13.13;9.03;;;12.90;59.60;;;;;;5420464;26;19999;-56
2024/04/18 06:57:14;;;;;;;33.87;25.23;;;12.30;59.50;;;;;;5420530;26;19999;-57
2024/04/18 06:59:40;;;;;;;55.77;39.40;;;11.90;61.60;;;;;;5420740;26;20007;-57
2024/04/18 07:02:06;;;;;;;14.67;13.13;;;11.40;63.00;;;;;;5420712;26;20005;-57
2024/04/18 07:04:31;;;;;;;13.33;9.93;;;11.00;64.30;;;;;;5420449;26;20334;-57
2024/04/18 07:06:58;;;;;;;12.37;8.77;;;10.60;66.00;;;;;;5420369;26;20007;-57
2024/04/18 07:09:24;;;;;;;12.27;9.40;;;10.10;67.80;;;;;;5420364;26;20031;-57
2024/04/18 07:11:50;;;;;;;11.67;9.10;;;9.60;69.60;;;;;;5420282;26;20010;-56
2024/04/18 07:14:16;;;;;;;18.20;13.13;;;9.50;71.40;;;;;;5420295;26;19999;-56
2024/04/18 07:16:41;;;;;;;12.70;10.13;;;9.70;72.30;;;;;;5420635;26;19999;-56
2024/04/18 07:19:07;;;;;;;11.57;8.87;;;9.80;72.50;;;;;;5418386;26;20003;-56
2024/04/18 07:21:33;;;;;;;25.30;21.37;;;9.60;72.10;;;;;;5420451;26;19999;-56
2024/04/18 07:23:58;;;;;;;12.40;10.13;;;9.90;72.40;;;;;;5420143;26;20330;-55
2024/04/18 07:26:24;;;;;;;11.47;8.43;;;10.20;72.80;;;;;;5420140;26;19999;-55
2024/04/18 07:28:50;;;;;;;12.87;9.00;;;10.50;70.60;;;;;;5419976;26;20010;-56
2024/04/18 07:31:16;;;;;;;14.23;8.73;;;10.70;71.30;;;;;;5420011;26;20000;-55
2024/04/18 07:33:41;;;;;;;10.67;7.53;;;11.70;69.10;;;;;;5420051;26;20011;-57
2024/04/18 07:36:07;;;;;;;10.47;8.10;;;11.90;67.30;;;;;;5420031;26;19995;-56
2024/04/18 07:38:33;;;;;;;12.50;9.10;;;12.10;65.60;;;;;;5419179;26;20000;-57
2024/04/18 07:40:58;;;;;;;11.83;8.03;;;12.40;65.20;;;;;;5420582;26;20073;-56
2024/04/18 07:43:26;;;;;;;14.77;8.73;;;12.40;63.10;;;;;;5420121;26;20072;-56
2024/04/18 07:45:52;;;;;;;13.17;9.13;;;13.30;65.80;;;;;;5419812;26;20003;-59
2024/04/18 07:48:18;;;;;;;11.20;8.37;;;15.50;58.90;;;;;;5419749;26;20000;-56
2024/04/18 07:50:44;;;;;;;11.33;8.33;;;15.00;56.90;;;;;;5419718;26;20003;-56
2024/04/18 07:53:10;;;;;;;12.57;9.30;;;13.60;58.50;;;;;;5419727;26;19996;-56
2024/04/18 07:55:36;;;;;;;12.17;8.87;;;12.40;60.80;;;;;;5419658;26;20007;-56
2024/04/18 07:58:02;;;;;;;12.17;8.23;;;11.60;63.50;;;;;;5418224;26;19995;-56
2024/04/18 08:00:28;;;;;;;13.67;9.70;;;10.70;65.50;;;;;;5419872;26;20013;-56
2024/04/18 08:02:53;;;;;;;12.30;9.37;;;10.30;68.50;;;;;;5419625;26;20072;-56
2024/04/18 08:05:19;;;;;;;12.67;9.60;;;10.10;70.00;;;;;;5419498;26;19999;-57
2024/04/18 08:07:45;;;;;;;16.67;11.67;;;10.10;70.90;;;;;;5419583;26;19995;-57
2024/04/18 08:10:11;;;;;;;18.13;14.20;;;10.10;71.10;;;;;;5419475;26;19995;-58
2024/04/18 08:12:36;;;;;;;15.00;11.17;;;9.90;72.90;;;;;;5419367;26;19995;-59
2024/04/18 08:15:03;;;;;;;19.77;13.00;;;9.70;73.90;;;;;;5419813;26;20031;-57
2024/04/18 08:17:28;;;;;;;20.57;15.70;;;9.50;76.10;;;;;;5419659;26;19996;-57
2024/04/18 08:19:54;;;;;;;18.90;13.50;;;10.20;75.90;;;;;;5419387;26;19996;-58
2024/04/18 08:22:20;;;;;;;46.00;28.80;;;10.50;72.80;;;;;;5419281;26;20341;-57
2024/04/18 08:24:45;;;;;;;169.73;103.37;;;10.30;72.80;;;;;;5419397;26;20011;-58
2024/04/18 08:27:11;;;;;;;16.30;11.67;;;10.00;73.30;;;;;;5419328;26;20010;-58
2024/04/18 08:29:37;;;;;;;25.50;14.97;;;9.90;75.90;;;;;;5419436;26;19999;-57
2024/04/18 08:32:03;;;;;;;18.43;11.50;;;10.10;75.10;;;;;;5419497;26;19996;-59
2024/04/18 08:34:29;;;;;;;13.93;9.07;;;12.70;71.60;;;;;;5419147;26;20007;-58
2024/04/18 08:36:55;;;;;;;11.55;8.25;;;17.10;60.70;;;;;;5419454;26;20007;-58
2024/04/18 08:39:21;;;;;;;15.85;7.93;;;20.60;51.80;;;;;;5419337;26;20006;-56
2024/04/18 08:41:46;;;;;;;11.07;7.88;;;25.00;46.50;;;;;;5419745;26;19995;-56
2024/04/18 08:44:14;;;;;;;9.70;6.85;;;26.50;42.00;;;;;;5419455;26;19999;-56
2024/04/18 08:46:41;;;;;;;31.17;27.90;;;25.70;40.80;;;;;;5419346;26;20015;-56
2024/04/18 08:49:09;;;;;;;36.10;32.20;;;23.70;42.60;;;;;;5417522;26;20442;-57
2024/04/18 08:51:38;;;;;;;9.75;7.28;;;21.30;44.70;;;;;;5419344;26;20004;-56
2024/04/18 08:54:04;;;;;;;9.50;6.70;;;20.30;44.70;;;;;;5419245;26;20067;-56
2024/04/18 08:56:35;;;;;;;8.77;6.22;;;21.80;43.80;;;;;;5418927;26;20075;-56
2024/04/18 08:59:01;;;;;;;8.02;5.80;;;24.10;41.60;;;;;;5418794;26;19999;-54
2024/04/18 09:01:27;;;;;;;8.60;6.65;;;23.80;40.30;;;;;;5419142;26;20007;-55
2024/04/18 09:03:55;;;;;;;8.82;6.10;;;21.60;40.60;;;;;;5418740;26;19995;-53
2024/04/18 09:06:21;;;;;;;7.45;5.97;;;21.10;42.60;;;;;;5418616;26;19999;-54
2024/04/18 09:08:52;;;;;;;10.52;8.18;;;20.10;43.00;;;;;;5419016;26;20091;-55
2024/04/18 09:11:18;;;;;;;9.32;6.50;;;19.30;45.50;;;;;;5418687;26;20437;-56
2024/04/18 09:13:45;;;;;;;8.77;6.10;;;17.30;47.10;;;;;;5418551;26;20035;-53
2024/04/18 09:16:11;;;;;;;9.32;6.43;;;16.30;50.10;;;;;;5418505;26;20494;-55
2024/04/18 09:18:38;;;;;;;11.98;7.28;;;15.30;51.70;;;;;;5418467;26;20011;-54
2024/04/18 09:21:09;;;;;;;11.82;7.72;;;14.60;53.00;;;;;;5418519;26;20330;-56
2024/04/18 09:23:36;;;;;;;12.60;6.73;;;14.20;54.90;;;;;;5418523;26;20384;-55
2024/04/18 09:26:01;;;;;;;11.27;7.20;;;13.50;54.50;;;;;;5418847;26;20008;-55
2024/04/18 09:28:27;;;;;;;10.17;7.03;;;12.90;56.70;;;;;;5418421;26;20010;-55
2024/04/18 09:30:53;;;;;;;11.50;6.93;;;13.00;58.60;;;;;;5418605;26;19995;-53
2024/04/18 09:33:20;;;;;;;12.77;7.83;;;13.10;56.70;;;;;;5418653;26;19995;-54
2024/04/18 09:35:50;;;;;;;11.57;7.40;;;13.20;56.00;;;;;;5418316;26;19995;-54
2024/04/18 09:38:18;;;;;;;13.63;8.70;;;13.40;55.90;;;;;;5417991;26;20459;-56
2024/04/18 09:40:55;;;;;;;22.70;14.90;;;12.50;57.70;;;;;;5418477;26;20012;-54
2024/04/18 09:43:50;;;;;;;14.60;9.03;;;12.40;58.00;;;;;;5419145;26;19995;-55
2024/04/18 09:46:21;;;;;;;18.13;11.00;;;12.30;57.50;;;;;;5388164;26;19995;-54
2024/04/18 09:48:48;;;;;;;10.27;6.87;;;12.00;58.40;;;;;;5418038;26;19995;-55
2024/04/18 09:51:15;;;;;;;10.20;5.97;;;11.90;60.40;;;;;;5418010;26;20002;-55
2024/04/18 09:53:44;;;;;;;16.00;7.00;;;11.90;59.80;;;;;;5417911;26;20403;-55
2024/04/18 09:56:12;;;;;;;47.30;33.80;;;11.90;61.70;;;;;;5418159;26;20419;-55
2024/04/18 09:58:38;;;;;;;22.97;15.70;;;11.50;61.40;;;;;;5418008;26;20000;-56
2024/04/18 10:01:04;;;;;;;11.23;7.23;;;11.40;59.60;;;;;;5419982;26;20019;-57
2024/04/18 10:03:30;;;;;;;16.13;9.67;;;11.30;59.30;;;;;;5421457;26;19992;-57
2024/04/18 10:06:00;;;;;;;17.93;12.90;;;11.30;60.20;;;;;;5421502;26;20384;-57
2024/04/18 10:08:33;;;;;;;11.97;8.57;;;11.00;61.50;;;;;;5421694;26;19992;-55
2024/04/18 10:11:00;;;;;;;13.87;8.53;;;11.00;63.10;;;;;;5421475;26;20453;-56
2024/04/18 10:13:26;;;;;;;14.40;9.07;;;11.10;63.10;;;;;;5421245;26;20007;-57
2024/04/18 10:16:12;;;;;;;57.70;28.17;;;10.90;62.40;;;;;;5421757;26;19999;-56
2024/04/18 10:18:39;;;;;;;13.35;8.55;;;10.70;62.70;;;;;;5421463;26;20010;-57
2024/04/18 10:21:21;;;;;;;10.57;6.77;;;10.50;63.50;;;;;;5421093;26;20342;-57
2024/04/18 10:23:47;;;;;;;16.03;10.37;;;10.40;61.80;;;;;;5421089;26;20007;-57
2024/04/18 10:26:17;;;;;;;14.97;9.40;;;10.00;62.40;;;;;;5421048;26;20003;-58
2024/04/18 10:28:44;;;;;;;12.53;7.67;;;10.20;64.40;;;;;;5420889;26;19999;-58
2024/04/18 10:31:11;;;;;;;16.17;7.60;;;10.20;63.50;;;;;;5420880;26;20338;-57
2024/04/18 10:33:39;;;;;;;11.67;7.03;;;10.50;61.90;;;;;;5420883;26;20013;-57
2024/04/18 10:36:11;;;;;;;13.23;7.13;;;10.70;61.00;;;;;;5420838;26;20531;-57
2024/04/18 10:38:45;;;;;;;13.57;8.00;;;11.30;59.70;;;;;;5420641;26;19999;-56
2024/04/18 10:41:15;;;;;;;12.33;7.03;;;11.60;60.40;;;;;;5421764;26;20003;-56
2024/04/18 10:43:41;;;;;;;12.33;7.37;;;11.50;58.90;;;;;;5421591;26;20455;-56
2024/04/18 10:46:10;;;;;;;10.83;6.20;;;11.70;57.60;;;;;;5421089;26;20000;-56
2024/04/18 10:48:36;;;;;;;7.80;4.90;;;11.70;58.30;;;;;;5421276;26;20076;-56
2024/04/18 10:51:03;;;;;;;11.23;6.60;;;11.70;58.60;;;;;;5420624;26;20349;-56
2024/04/18 10:53:29;;;;;;;9.77;5.60;;;12.20;57.60;;;;;;5420781;26;19999;-56
2024/04/18 10:55:55;;;;;;;18.23;11.30;;;12.70;57.20;;;;;;5420577;26;20004;-57
2024/04/18 10:58:21;;;;;;;78.80;49.03;;;12.80;57.50;;;;;;5420472;26;19999;-56
2024/04/18 11:00:47;;;;;;;12.53;6.40;;;12.70;55.90;;;;;;5420450;26;20007;-56
2024/04/18 11:03:13;;;;;;;11.33;7.23;;;12.50;56.30;;;;;;5420308;26;20006;-56
2024/04/18 11:05:43;;;;;;;12.30;6.97;;;12.30;56.50;;;;;;5420458;26;20007;-56
2024/04/18 11:08:10;;;;;;;10.13;5.90;;;11.90;58.00;;;;;;5418890;26;19999;-56
2024/04/18 11:10:37;;;;;;;9.30;6.30;;;11.90;58.70;;;;;;5420369;26;20350;-55
2024/04/18 11:13:03;;;;;;;15.27;9.40;;;12.00;58.70;;;;;;5419299;26;20335;-57
2024/04/18 11:15:30;;;;;;;10.27;7.00;;;12.00;59.10;;;;;;5420308;26;19995;-57
2024/04/18 11:17:56;;;;;;;10.83;6.80;;;11.70;60.10;;;;;;5420292;26;19996;-55
2024/04/18 11:20:23;;;;;;;12.37;8.60;;;11.50;60.30;;;;;;5420115;26;20474;-56
2024/04/18 11:22:49;;;;;;;10.37;6.40;;;11.20;61.80;;;;;;5420066;26;19995;-57
2024/04/18 11:25:15;;;;;;;11.33;6.10;;;11.30;58.90;;;;;;5420423;26;19996;-56
2024/04/18 11:27:42;;;;;;;10.27;5.80;;;11.10;60.50;;;;;;5420252;26;20028;-56
2024/04/18 11:30:16;;;;;;;10.30;6.83;;;10.90;60.90;;;;;;5420072;26;19999;-56
2024/04/18 11:32:42;;;;;;;7.40;4.43;;;10.60;59.30;;;;;;5420981;26;20066;-56
2024/04/18 11:35:09;;;;;;;8.17;5.20;;;10.40;58.00;;;;;;5419959;26;19991;-56
2024/04/18 11:37:38;;;;;;;10.73;6.07;;;10.70;57.90;;;;;;5418286;26;20099;-56
2024/04/18 11:40:09;;;;;;;8.17;4.47;;;11.10;59.10;;;;;;5420154;26;19995;-56
2024/04/18 11:42:35;;;;;;;9.03;5.50;;;11.20;56.70;;;;;;5420157;26;20000;-56
2024/04/18 11:45:01;;;;;;;7.40;3.83;;;11.70;58.60;;;;;;5420029;26;20481;-57
2024/04/18 11:47:27;;;;;;;6.03;3.47;;;11.70;55.80;;;;;;5420332;26;20003;-56
2024/04/18 11:49:53;;;;;;;9.07;4.60;;;11.70;54.30;;;;;;5420427;26;20000;-56
2024/04/18 11:52:19;;;;;;;6.10;3.90;;;11.90;51.90;;;;;;5419718;26;20069;-56
2024/04/18 11:54:44;;;;;;;7.50;4.87;;;12.20;54.00;;;;;;5419869;26;20000;-56
2024/04/18 11:57:10;;;;;;;7.73;3.80;;;12.70;55.20;;;;;;5419870;26;19999;-56
2024/04/18 11:59:37;;;;;;;6.00;3.27;;;12.70;51.00;;;;;;5419409;26;20427;-56
2024/04/18 12:02:04;;;;;;;5.83;3.73;;;12.30;49.80;;;;;;5419619;26;20045;-56
2024/04/18 12:04:30;;;;;;;6.27;3.80;;;11.80;50.30;;;;;;5419921;26;20007;-56
2024/04/18 12:06:56;;;;;;;7.27;4.00;;;11.40;51.10;;;;;;5419947;26;20387;-56
2024/04/18 12:09:21;;;;;;;6.97;4.10;;;11.10;52.70;;;;;;5419439;26;20311;-56
2024/04/18 12:11:47;;;;;;;6.40;4.27;;;10.60;54.00;;;;;;5419529;26;20494;-56
2024/04/18 12:14:13;;;;;;;11.13;4.23;;;10.70;54.10;;;;;;5419409;26;19996;-57
2024/04/18 12:16:39;;;;;;;9.13;4.30;;;10.70;53.60;;;;;;5419980;26;19995;-57
2024/04/18 12:19:05;;;;;;;19.67;11.93;;;10.70;55.20;;;;;;5419411;26;20369;-57
2024/04/18 12:21:30;;;;;;;8.87;5.60;;;10.60;59.10;;;;;;5419737;26;20006;-57
2024/04/18 12:23:56;;;;;;;14.97;8.80;;;10.70;59.50;;;;;;5418998;26;20010;-57
2024/04/18 12:26:22;;;;;;;19.00;11.10;;;10.70;59.40;;;;;;5419316;26;20010;-57
2024/04/18 12:28:48;;;;;;;10.53;5.07;;;10.80;59.70;;;;;;5419508;26;20011;-57
2024/04/18 12:31:14;;;;;;;8.40;5.30;;;11.00;59.70;;;;;;5419294;26;20334;-57
2024/04/18 12:33:40;;;;;;;49.90;30.17;;;10.90;59.10;;;;;;5419130;26;20333;-57
2024/04/18 12:36:09;;;;;;;10.53;5.53;;;11.00;60.80;;;;;;5419436;26;19999;-57